createdAt,value
2019-01-12T00:03:08.679Z,65.99
2019-01-12T00:08:12.824Z,65.96
2019-01-12T00:13:16.870Z,65.57
2019-01-12T00:18:20.819Z,66.43
2019-01-12T00:23:24.880Z,65.90
2019-01-12T00:28:29.050Z,66.05
2019-01-12T00:33:33.710Z,65.67
2019-01-12T00:38:38.132Z,65.71
2019-01-12T00:43:42.158Z,65.92
2019-01-12T00:48:47.139Z,65.96
2019-01-12T00:53:51.184Z,66.46
2019-01-12T00:58:55.128Z,66.18
2019-01-12T01:03:59.342Z,66.17
2019-01-12T01:09:07.648Z,66.70
2019-01-12T01:14:11.644Z,66.29
2019-01-12T01:19:15.857Z,66.53
2019-01-12T01:24:19.920Z,67.11
2019-01-12T01:29:24.066Z,67.48
2019-01-12T01:34:28.065Z,67.69
2019-01-12T01:39:32.133Z,67.50
2019-01-12T01:44:36.099Z,67.52
2019-01-12T01:49:40.550Z,67.66
2019-01-12T01:54:44.773Z,67.48
2019-01-12T01:59:48.803Z,67.61
2019-01-12T02:04:52.840Z,67.84
2019-01-12T02:09:56.830Z,67.67
2019-01-12T02:15:01.046Z,67.99
2019-01-12T02:20:05.280Z,67.72
2019-01-12T02:25:09.560Z,67.75
2019-01-12T02:30:22.301Z,67.94
2019-01-12T02:35:26.479Z,68.47
2019-01-12T02:40:30.623Z,68.28
2019-01-12T02:45:34.785Z,68.20
2019-01-12T02:50:39.640Z,68.46
2019-01-12T02:55:43.670Z,68.22
2019-01-12T03:00:47.682Z,68.67
2019-01-12T03:05:52.072Z,68.62
2019-01-12T03:10:56.191Z,68.97
2019-01-12T03:16:00.219Z,68.82
2019-01-12T03:21:06.750Z,69.26
2019-01-12T03:26:12.284Z,69.57
2019-01-12T03:31:16.407Z,70.14
2019-01-12T03:36:23.566Z,70.42
2019-01-12T03:41:27.567Z,70.18
2019-01-12T03:46:31.617Z,70.06
2019-01-12T03:51:39.147Z,69.91
2019-01-12T03:56:43.194Z,70.52
2019-01-12T04:01:49.066Z,70.54
2019-01-12T04:06:53.084Z,70.44
2019-01-12T04:11:57.163Z,70.60
2019-01-12T04:17:01.345Z,71.05
2019-01-12T04:22:05.412Z,71.42
2019-01-12T04:27:09.317Z,71.95
2019-01-12T04:32:13.355Z,71.86
2019-01-12T04:37:17.446Z,72.27
2019-01-12T04:42:22.005Z,72.71
2019-01-12T04:47:26.132Z,72.66
2019-01-12T04:52:30.975Z,72.84
2019-01-12T04:57:34.953Z,72.67
2019-01-12T05:02:39.119Z,72.58
2019-01-12T05:07:43.046Z,72.50
2019-01-12T05:12:47.009Z,72.02
2019-01-12T05:17:51.064Z,71.42
2019-01-12T05:22:54.993Z,71.75
2019-01-12T05:28:00.636Z,71.10
2019-01-12T05:33:06.353Z,70.89
2019-01-12T05:38:10.500Z,70.95
2019-01-12T05:43:15.982Z,70.89
2019-01-12T05:48:20.126Z,70.92
2019-01-12T05:53:24.685Z,70.70
2019-01-12T05:58:28.605Z,70.86
2019-01-12T06:03:33.101Z,69.98
2019-01-12T06:08:37.308Z,69.69
2019-01-12T06:13:41.898Z,69.85
2019-01-12T06:18:47.550Z,69.21
2019-01-12T06:23:51.412Z,69.32
2019-01-12T06:28:55.603Z,69.59
2019-01-12T06:33:59.501Z,69.38
2019-01-12T06:39:08.288Z,69.77
2019-01-12T06:44:14.191Z,69.55
2019-01-12T06:49:18.375Z,68.91
2019-01-12T06:54:25.152Z,68.77
2019-01-12T06:59:29.363Z,68.37
2019-01-12T07:04:35.417Z,68.48
2019-01-12T07:09:39.397Z,68.50
2019-01-12T07:14:43.576Z,68.58
2019-01-12T07:19:47.921Z,68.37
2019-01-12T07:24:52.401Z,69.68
2019-01-12T07:29:56.472Z,67.84
2019-01-12T07:35:00.898Z,67.72
2019-01-12T07:40:05.215Z,66.48
2019-01-12T07:45:09.390Z,65.34
2019-01-12T07:50:14.593Z,64.88
2019-01-12T07:55:19.389Z,64.51
2019-01-12T08:00:23.504Z,63.91
2019-01-12T08:05:27.792Z,63.04
2019-01-12T08:10:31.739Z,62.99
2019-01-12T08:15:35.757Z,62.79
2019-01-12T08:20:39.779Z,62.95
2019-01-12T08:25:44.029Z,62.79
2019-01-12T08:30:47.930Z,62.71
2019-01-12T08:35:51.989Z,62.42
2019-01-12T08:40:56.113Z,62.44
2019-01-12T08:46:00.830Z,61.94
2019-01-12T08:51:05.281Z,60.74
2019-01-12T08:56:10.451Z,60.98
2019-01-12T09:01:14.661Z,60.43
2019-01-12T09:06:18.695Z,59.92
2019-01-12T09:11:22.777Z,59.05
2019-01-12T09:16:27.025Z,67.53
2019-01-12T09:21:31.044Z,66.41
2019-01-12T09:26:36.468Z,68.46
2019-01-12T09:31:40.450Z,66.89
2019-01-12T09:36:44.628Z,71.93
2019-01-12T09:41:48.594Z,68.92
2019-01-12T09:46:52.728Z,68.59
2019-01-12T09:51:57.165Z,67.30
2019-01-12T09:57:03.667Z,65.67
2019-01-12T10:02:08.029Z,65.67
2019-01-12T10:07:12.547Z,67.41
2019-01-12T10:12:16.532Z,68.47
2019-01-12T10:17:20.655Z,68.19
2019-01-12T10:22:28.582Z,68.76
2019-01-12T10:27:30.931Z,67.73
2019-01-12T10:32:35.147Z,66.86
2019-01-12T10:37:39.478Z,66.44
2019-01-12T10:42:43.785Z,64.89
2019-01-12T10:47:49.469Z,63.79
2019-01-12T10:52:53.963Z,64.25
2019-01-12T10:58:00.140Z,63.52
2019-01-12T11:03:04.901Z,64.39
2019-01-12T11:08:08.986Z,63.14
2019-01-12T11:13:12.925Z,61.97
2019-01-12T11:18:16.850Z,63.01
2019-01-12T11:23:21.695Z,62.19
2019-01-12T11:28:34.732Z,61.68
2019-01-12T11:33:39.394Z,63.61
2019-01-12T11:38:52.556Z,60.70
2019-01-12T11:43:58.169Z,61.22
2019-01-12T11:49:02.799Z,59.63
2019-01-12T11:54:39.811Z,59.77
2019-01-12T11:59:49.904Z,58.53
2019-01-12T12:04:53.915Z,58.37
2019-01-12T12:09:58.135Z,60.02
2019-01-12T12:15:02.182Z,58.66
2019-01-12T12:20:10.263Z,57.92
2019-01-12T12:25:14.515Z,56.04
2019-01-12T12:30:21.271Z,58.50
2019-01-12T12:35:25.558Z,57.94
2019-01-12T12:40:29.923Z,58.69
2019-01-12T12:45:35.701Z,59.35
2019-01-12T12:50:39.695Z,60.01
2019-01-12T12:55:45.657Z,60.43
2019-01-12T13:00:50.458Z,60.74
2019-01-12T13:05:54.760Z,60.34
2019-01-12T13:10:58.929Z,59.44
2019-01-12T13:16:03.173Z,56.95
2019-01-12T13:21:07.189Z,56.29
2019-01-12T13:26:11.223Z,56.29
2019-01-12T13:31:15.225Z,56.50
2019-01-12T13:36:19.394Z,57.57
2019-01-12T13:41:23.321Z,54.12
2019-01-12T13:46:27.516Z,53.20
2019-01-12T13:51:31.501Z,54.13
2019-01-12T13:56:35.666Z,55.12
2019-01-12T14:01:40.350Z,55.53
2019-01-12T14:06:44.582Z,55.74
2019-01-12T14:11:48.713Z,56.58
2019-01-12T14:16:52.968Z,55.78
2019-01-12T14:21:57.122Z,56.10
2019-01-12T14:27:01.309Z,56.70
2019-01-12T14:32:05.451Z,56.38
2019-01-12T14:37:09.490Z,56.95
2019-01-12T14:42:13.415Z,57.14
2019-01-12T14:47:17.403Z,57.71
2019-01-12T14:52:21.525Z,57.78
2019-01-12T14:57:25.827Z,58.62
2019-01-12T15:02:30.514Z,58.05
2019-01-12T15:07:34.829Z,57.90
2019-01-12T15:12:39.038Z,58.19
2019-01-12T15:17:42.946Z,58.75
2019-01-12T15:22:47.629Z,59.00
2019-01-12T15:27:51.883Z,59.27
2019-01-12T15:32:55.973Z,58.93
2019-01-12T15:38:00.021Z,59.83
2019-01-12T15:43:04.265Z,60.17
2019-01-12T15:48:08.359Z,60.17
2019-01-12T15:53:13.564Z,60.58
2019-01-12T15:58:17.682Z,60.42
2019-01-12T16:03:22.137Z,59.98
2019-01-12T16:08:26.316Z,59.34
2019-01-12T16:13:31.170Z,59.90
2019-01-12T16:18:36.039Z,59.79
2019-01-12T16:23:40.074Z,59.68
2019-01-12T16:28:44.436Z,59.72
2019-01-12T16:33:48.711Z,59.45
2019-01-12T16:38:52.788Z,59.21
2019-01-12T16:43:56.861Z,59.15
2019-01-12T16:49:00.986Z,58.96
2019-01-12T16:54:05.076Z,58.77
2019-01-12T16:59:09.224Z,58.84
2019-01-12T17:04:13.865Z,58.31
2019-01-12T17:09:17.917Z,58.61
2019-01-12T17:14:22.112Z,58.88
2019-01-12T17:19:26.284Z,58.81
2019-01-12T17:24:30.516Z,58.77
2019-01-12T17:29:35.776Z,59.04
2019-01-12T17:34:40.936Z,59.32
2019-01-12T17:39:46.041Z,58.97
2019-01-12T17:44:50.440Z,58.92
2019-01-12T17:49:54.410Z,58.64
2019-01-12T17:54:58.507Z,58.49
2019-01-12T18:00:03.711Z,58.60
2019-01-12T18:05:10.141Z,57.96
2019-01-12T18:10:15.213Z,58.10
2019-01-12T18:15:19.466Z,58.26
2019-01-12T18:20:23.606Z,57.77
2019-01-12T18:25:27.648Z,58.01
2019-01-12T18:30:31.845Z,58.36
2019-01-12T18:35:36.106Z,57.94
2019-01-12T18:40:40.289Z,58.57
2019-01-12T18:45:44.231Z,58.08
2019-01-12T18:50:49.345Z,58.12
2019-01-12T18:55:53.220Z,57.37
2019-01-12T19:00:58.575Z,57.53
2019-01-12T19:06:03.987Z,57.54
2019-01-12T19:11:08.234Z,57.04
2019-01-12T19:16:12.304Z,57.51
2019-01-12T19:21:16.445Z,57.09
2019-01-12T19:26:20.518Z,57.36
2019-01-12T19:31:24.599Z,57.56
2019-01-12T19:36:29.039Z,57.36
2019-01-12T19:41:33.175Z,57.16
2019-01-12T19:46:37.507Z,57.35
2019-01-12T19:51:41.853Z,57.34
2019-01-12T19:56:45.944Z,57.35
2019-01-12T20:01:50.271Z,57.66
2019-01-12T20:06:54.752Z,57.67
2019-01-12T20:11:58.780Z,57.94
2019-01-12T20:17:04.917Z,57.47
2019-01-12T20:22:09.773Z,57.70
2019-01-12T20:27:13.768Z,57.76
2019-01-12T20:32:49.582Z,58.05
2019-01-12T20:38:34.584Z,58.32
2019-01-12T20:44:43.719Z,58.56
2019-01-12T20:50:38.419Z,58.38
2019-01-12T20:56:24.249Z,58.83
2019-01-12T21:01:39.328Z,58.27
2019-01-12T21:07:07.215Z,58.69
2019-01-12T21:13:06.001Z,58.55
2019-01-12T21:18:10.107Z,59.04
2019-01-12T21:23:14.175Z,59.60
2019-01-12T21:28:18.715Z,59.00
2019-01-12T21:33:22.665Z,58.87
2019-01-12T21:38:26.762Z,58.53
2019-01-12T21:43:30.873Z,59.25
2019-01-12T21:48:34.955Z,59.06
2019-01-12T21:53:39.211Z,58.82
2019-01-12T21:58:43.643Z,58.89
2019-01-12T22:03:47.642Z,59.19
2019-01-12T22:08:51.860Z,59.29
2019-01-12T22:13:57.737Z,58.77
2019-01-12T22:19:02.809Z,59.11
2019-01-12T22:24:06.992Z,59.19
2019-01-12T22:29:10.966Z,59.11
2019-01-12T22:34:14.867Z,59.25
2019-01-12T22:39:18.922Z,59.64
2019-01-12T22:44:22.819Z,59.95
2019-01-12T22:49:26.851Z,59.92
2019-01-12T22:54:30.940Z,60.50
2019-01-12T22:59:35.039Z,61.30
2019-01-12T23:04:38.953Z,63.61
2019-01-12T23:09:43.944Z,63.27
2019-01-12T23:14:48.285Z,65.31
2019-01-12T23:19:52.463Z,63.32
2019-01-12T23:24:56.543Z,63.41
2019-01-12T23:30:04.623Z,64.89
2019-01-12T23:35:07.448Z,64.87
2019-01-12T23:40:11.941Z,65.58
2019-01-12T23:45:16.061Z,65.80
2019-01-12T23:50:20.128Z,66.50
2019-01-12T23:55:24.754Z,66.82
